Time;durP1;ratioP1;P1;durP2;ratioP2;P2;SDS_P1;SDS_P2;PMS_P1;PMS_P2;Temp;Humidity;BMP_temperature;BMP_pressure;BME280_temperature;BME280_humidity;BME280_pressure;Samples;Min_cycle;Max_cycle;Signal;HPM_P1;HPM_P2
2022/09/30 08:32:05;;;;;;;16.38;9.10;;;;;;;10.65;83.54;96025.81;2102689;27;20579;-67
2022/09/30 08:33:07;;;;;;;18.48;9.18;;;;;;;10.40;83.56;96016.75;2101228;28;20546;-67
2022/09/30 08:44:23;;;;;;;17.52;8.40;;;;;;;11.21;80.31;96063.63;2099518;27;20562;-67
2022/09/30 08:45:50;;;;;;;17.55;8.25;;;;;;;11.40;80.38;96060.81;2097497;28;20199;-67
2022/09/30 08:49:19;;;;;;;17.83;8.10;;;;;;;11.62;77.39;96064.81;2084733;28;20576;-67
2022/09/30 08:50:48;;;;;;;15.85;7.20;;;;;;;11.65;77.89;96069.84;2086839;28;20203;-67
2022/09/30 08:51:52;;;;;;;18.35;8.52;;;;;;;11.97;77.80;96064.53;2082014;28;20216;-67
2022/09/30 08:53:00;;;;;;;21.88;9.40;;;;;;;12.41;76.77;96065.41;2083762;28;20279;-67
2022/09/30 08:54:05;;;;;;;15.38;9.02;;;;;;;12.30;76.10;96066.03;2082763;28;20707;-69
2022/09/30 09:02:20;;;;;;;18.13;9.60;;;;;;;14.34;69.30;96063.44;2085154;28;20549;-68
2022/09/30 09:03:27;;;;;;;22.33;8.27;;;;;;;14.81;67.05;96052.38;2085330;28;20234;-67
2022/09/30 09:04:28;;;;;;;20.48;9.02;;;;;;;15.12;66.69;96060.66;2085648;28;20794;-68
2022/09/30 09:05:40;;;;;;;16.85;8.52;;;;;;;15.18;66.19;96071.59;2082720;28;20208;-68
2022/09/30 09:13:40;;;;;;;17.77;7.82;;;;;;;14.67;66.38;96072.56;2080199;28;20189;-68
2022/09/30 09:15:19;;;;;;;18.25;7.53;;;;;;;15.06;65.72;96069.84;2086504;28;20299;-68
2022/09/30 09:16:36;;;;;;;19.35;8.65;;;;;;;15.75;63.15;96071.00;2068306;28;20309;-68
2022/09/30 09:18:12;;;;;;;12.82;7.75;;;;;;;16.19;62.10;96066.84;2086380;28;20563;-68
2022/09/30 09:19:37;;;;;;;19.27;8.05;;;;;;;16.33;60.34;96066.63;2082919;28;20672;-68
2022/09/30 09:20:53;;;;;;;12.00;6.63;;;;;;;17.01;59.16;96062.31;2080779;28;20251;-68
2022/09/30 09:22:00;;;;;;;16.17;6.65;;;;;;;16.91;59.00;96070.13;2083053;28;20243;-68
2022/09/30 09:23:07;;;;;;;13.90;7.03;;;;;;;16.75;58.68;96070.47;2083448;28;20225;-68
2022/09/30 09:24:18;;;;;;;12.98;6.78;;;;;;;16.24;59.71;96067.34;2084017;28;20251;-68
2022/09/30 09:25:26;;;;;;;17.95;7.38;;;;;;;15.74;61.23;96075.41;2081875;28;20236;-68
2022/09/30 09:26:35;;;;;;;11.13;7.03;;;;;;;15.61;61.88;96067.59;2081672;28;20247;-68
2022/09/30 09:28:04;;;;;;;14.13;6.78;;;;;;;15.59;62.59;96073.94;2080548;28;20287;-68
2022/09/30 09:29:19;;;;;;;22.50;7.57;;;;;;;15.21;63.65;96069.69;2080537;28;20312;-68
2022/09/30 09:30:22;;;;;;;13.30;7.55;;;;;;;15.41;63.02;96063.81;2081976;28;20200;-68
2022/09/30 09:31:24;;;;;;;13.75;7.22;;;;;;;15.55;62.01;96070.69;2073375;28;20586;-68
2022/09/30 09:32:27;;;;;;;21.58;7.25;;;;;;;15.54;62.60;96069.03;2082535;28;20193;-68
2022/09/30 09:33:34;;;;;;;9.85;5.60;;;;;;;14.71;62.30;96067.09;2080330;28;20305;-68
2022/09/30 09:34:40;;;;;;;14.93;7.35;;;;;;;14.67;63.93;96069.09;2081558;28;20262;-68
2022/09/30 09:35:51;;;;;;;20.23;7.43;;;;;;;14.85;63.30;96057.31;2072909;28;20295;-68
2022/09/30 09:37:13;;;;;;;9.23;5.50;;;;;;;14.93;62.27;96055.91;2089637;28;20287;-68
2022/09/30 09:38:57;;;;;;;10.40;6.13;;;;;;;14.38;63.46;96069.31;2084794;28;20205;-68
2022/09/30 09:40:10;;;;;;;10.95;6.25;;;;;;;15.17;62.95;96067.28;2081250;28;20287;-68
2022/09/30 09:41:14;;;;;;;12.02;6.40;;;;;;;15.91;61.39;96070.72;2078580;28;20244;-68
2022/09/30 09:42:30;;;;;;;14.43;6.43;;;;;;;16.94;57.72;96080.44;2081215;28;20232;-68
2022/09/30 09:55:04;;;;;;;10.98;4.22;;;;;;;15.23;58.51;96080.94;2081921;28;20320;-68
2022/09/30 09:56:19;;;;;;;10.85;4.60;;;;;;;15.79;58.23;96059.28;2076462;28;20215;-68
2022/09/30 09:57:30;;;;;;;8.30;4.32;;;;;;;15.77;59.00;96061.19;2090056;28;20195;-68
2022/09/30 09:58:33;;;;;;;9.57;4.45;;;;;;;16.29;57.25;96081.00;2082494;28;20243;-67
2022/09/30 09:59:35;;;;;;;9.57;4.20;;;;;;;15.28;59.48;96079.66;2082440;28;20280;-68
2022/09/30 10:01:50;;;;;;;11.05;4.38;;;;;;;15.64;57.62;96083.19;2077587;28;20577;-68
2022/09/30 10:03:11;;;;;;;8.75;4.60;;;;;;;16.39;57.17;96080.28;2077550;28;20228;-68
2022/09/30 10:04:23;;;;;;;12.98;4.35;;;;;;;17.05;55.70;96079.56;2075145;28;20259;-68
2022/09/30 10:05:25;;;;;;;11.32;3.75;;;;;;;17.38;55.05;96076.03;2077221;28;20667;-67
2022/09/30 10:06:42;;;;;;;8.20;4.32;;;;;;;17.51;55.12;96072.38;2079449;28;20307;-67
2022/09/30 10:07:44;;;;;;;18.08;6.07;;;;;;;17.18;55.00;96079.41;2079201;28;20236;-67
2022/09/30 10:08:54;;;;;;;16.45;5.00;;;;;;;17.07;55.92;96082.94;2075277;28;20247;-67
2022/09/30 10:10:14;;;;;;;9.02;4.13;;;;;;;15.77;58.31;96083.09;2074409;28;20951;-67
2022/09/30 10:11:25;;;;;;;12.90;4.53;;;;;;;14.98;60.42;96085.31;2073544;28;20252;-67
2022/09/30 10:12:27;;;;;;;10.02;4.38;;;;;;;14.71;61.35;96078.44;2083460;28;20800;-68
2022/09/30 10:13:34;;;;;;;8.88;4.80;;;;;;;15.00;60.35;96086.06;2077006;28;20252;-67
2022/09/30 10:14:45;;;;;;;6.70;4.30;;;;;;;13.96;61.52;96077.38;2073439;28;20216;-67
2022/09/30 10:15:49;;;;;;;7.20;4.55;;;;;;;13.34;64.22;96085.81;2066789;28;20700;-67
2022/09/30 10:16:58;;;;;;;13.75;4.88;;;;;;;13.52;64.72;96087.28;2083304;28;20197;-67
2022/09/30 10:18:00;;;;;;;18.63;4.72;;;;;;;13.77;64.57;96092.69;2080883;28;20208;-67
2022/09/30 10:19:04;;;;;;;12.95;4.53;;;;;;;14.32;63.89;96088.13;2080727;28;20224;-67
2022/09/30 10:20:32;;;;;;;8.13;4.07;;;;;;;15.07;61.75;96087.31;2076897;28;20197;-67
2022/09/30 10:21:33;;;;;;;8.30;4.20;;;;;;;15.99;60.48;96090.25;2075851;28;20256;-67
2022/09/30 10:22:35;;;;;;;7.70;4.25;;;;;;;17.91;55.75;96077.84;2073168;28;20206;-67
2022/09/30 10:23:39;;;;;;;8.57;3.60;;;;;;;17.65;54.39;96068.59;2075585;28;20204;-67
2022/09/30 10:24:40;;;;;;;8.38;4.45;;;;;;;18.21;52.61;96076.28;2075326;28;20327;-67
2022/09/30 10:37:14;;;;;;;8.20;3.15;;;;;;;24.30;38.64;96087.88;2076759;28;20233;-67
2022/09/30 10:38:16;;;;;;;10.20;3.42;;;;;;;24.35;37.25;96066.88;2078051;28;20309;-67
2022/09/30 10:39:29;;;;;;;7.45;2.70;;;;;;;22.15;40.84;96095.03;2076548;28;20696;-67
2022/09/30 10:40:31;;;;;;;12.52;2.80;;;;;;;22.30;40.73;96092.66;2072903;28;20205;-67
2022/09/30 10:41:34;;;;;;;3.28;2.13;;;;;;;23.23;39.65;96069.91;2070194;28;20328;-67
2022/09/30 10:42:39;;;;;;;4.97;2.38;;;;;;;23.96;38.52;96091.56;2083676;28;20683;-67
2022/09/30 10:43:43;;;;;;;6.60;2.70;;;;;;;23.58;38.62;96089.31;2076462;28;20616;-68
2022/09/30 10:44:48;;;;;;;6.63;2.95;;;;;;;22.72;40.84;96087.63;2076835;28;20202;-67
2022/09/30 10:45:51;;;;;;;7.85;3.08;;;;;;;22.50;41.33;96084.53;2070201;28;20239;-67
2022/09/30 10:47:15;;;;;;;8.68;2.83;;;;;;;23.31;39.25;96088.59;2080905;28;20292;-67
2022/09/30 10:48:22;;;;;;;7.07;3.17;;;;;;;23.80;38.88;96097.69;2078594;28;20233;-67
2022/09/30 10:49:26;;;;;;;9.18;3.67;;;;;;;24.41;38.60;96102.72;2075306;28;20229;-67
2022/09/30 10:50:32;;;;;;;8.07;2.28;;;;;;;25.58;36.37;96081.69;2075202;28;20735;-67
2022/09/30 10:51:35;;;;;;;11.10;2.63;;;;;;;26.12;34.72;96100.53;2078891;28;20304;-67
2022/09/30 10:52:43;;;;;;;6.47;2.30;;;;;;;26.01;34.42;96097.25;2073878;28;20244;-67
2022/09/30 10:53:44;;;;;;;9.25;2.40;;;;;;;25.46;35.00;96090.25;2076711;28;20198;-67
2022/09/30 10:54:57;;;;;;;9.40;2.60;;;;;;;25.13;35.60;96099.25;2072917;28;20332;-67
2022/09/30 10:56:04;;;;;;;5.80;2.53;;;;;;;20.34;41.56;96079.66;2066664;28;20299;-67
2022/09/30 10:57:14;;;;;;;7.65;2.67;;;;;;;18.40;44.80;96059.69;2082764;28;20446;-67
2022/09/30 10:58:34;;;;;;;3.63;2.20;;;;;;;16.90;48.07;96097.41;2074063;28;20703;-67
2022/09/30 10:59:38;;;;;;;4.28;2.45;;;;;;;16.89;49.58;96086.03;2072483;28;20616;-67
2022/09/30 11:00:40;;;;;;;7.18;2.95;;;;;;;16.31;50.90;96084.31;2065378;28;20236;-67
2022/09/30 11:07:03;;;;;;;10.35;2.95;;;;;;;16.05;51.73;96086.34;2069855;28;20209;-69
2022/09/30 11:08:21;;;;;;;5.05;2.47;;;;;;;15.79;53.55;96094.34;2080691;28;20228;-70
2022/09/30 11:09:36;;;;;;;6.72;3.03;;;;;;;15.12;55.63;96095.72;2079777;28;20308;-70
2022/09/30 11:11:08;;;;;;;7.10;2.70;;;;;;;14.73;57.15;96094.09;2070125;28;20225;-70
2022/09/30 11:12:18;;;;;;;10.57;3.45;;;;;;;14.83;56.64;96093.34;2075786;28;20624;-69
2022/09/30 11:13:42;;;;;;;6.45;3.30;;;;;;;14.64;57.35;96087.66;2075448;28;20287;-70
2022/09/30 11:14:56;;;;;;;5.25;3.03;;;;;;;15.00;57.39;96092.16;2076021;28;20641;-69
2022/09/30 11:16:11;;;;;;;12.80;3.05;;;;;;;17.10;52.29;96088.81;2069318;28;20227;-70
2022/09/30 11:17:24;;;;;;;7.53;3.40;;;;;;;19.40;45.88;96094.28;2083629;28;20284;-69
2022/09/30 11:25:05;;;;;;;10.88;3.75;;;;;;;18.03;46.55;96096.31;2074951;28;20618;-69
2022/09/30 11:26:24;;;;;;;10.85;2.67;;;;;;;18.76;46.31;96081.25;2075561;28;20229;-69
2022/09/30 11:28:12;;;;;;;5.57;2.55;;;;;;;18.24;46.95;96083.09;2075890;28;20326;-69
2022/09/30 11:29:25;;;;;;;10.80;2.88;;;;;;;20.16;45.63;96095.47;2079230;28;20770;-69
2022/09/30 11:30:48;;;;;;;7.28;2.47;;;;;;;19.69;44.55;96083.75;2072294;28;20774;-69
2022/09/30 11:32:07;;;;;;;9.93;2.15;;;;;;;19.60;46.02;96073.97;2077414;28;20309;-69
2022/09/30 11:33:30;;;;;;;11.02;2.25;;;;;;;19.93;45.29;96094.94;2076565;28;20645;-67
2022/09/30 11:34:47;;;;;;;4.43;2.30;;;;;;;19.35;44.87;96085.91;2074202;28;20260;-68
2022/09/30 11:36:30;;;;;;;4.10;2.13;;;;;;;19.53;45.72;96088.75;2069150;28;20200;-67
2022/09/30 11:37:59;;;;;;;8.15;2.72;;;;;;;19.17;47.87;96097.19;2059210;28;20764;-67
2022/09/30 11:39:13;;;;;;;7.88;3.17;;;;;;;18.23;50.59;96097.28;2060111;28;20293;-67
2022/09/30 11:40:36;;;;;;;8.68;2.90;;;;;;;18.89;50.16;96090.78;2073333;28;20691;-67
2022/09/30 11:41:47;;;;;;;6.72;2.50;;;;;;;19.06;49.44;96094.66;2075617;28;20277;-67
2022/09/30 11:43:01;;;;;;;10.23;2.67;;;;;;;19.28;48.43;96096.22;2075185;28;20640;-67
2022/09/30 11:44:27;;;;;;;7.72;2.53;;;;;;;18.95;47.45;96097.41;2076270;28;20250;-67
2022/09/30 11:45:59;;;;;;;7.07;2.15;;;;;;;18.89;48.33;96096.06;2076543;28;20760;-67
2022/09/30 11:47:12;;;;;;;5.18;2.40;;;;;;;19.36;47.18;96093.75;2059719;28;20269;-67
2022/09/30 11:48:32;;;;;;;3.50;2.10;;;;;;;17.69;48.94;96097.28;2074653;28;20748;-67
2022/09/30 11:50:05;;;;;;;4.13;1.75;;;;;;;17.96;48.02;96101.25;2074964;28;20545;-67
2022/09/30 11:51:28;;;;;;;4.53;2.15;;;;;;;17.88;48.69;96096.59;2069955;28;20254;-67
2022/09/30 11:53:11;;;;;;;5.15;2.25;;;;;;;18.47;47.85;96107.56;2081014;28;20363;-67
2022/09/30 11:54:58;;;;;;;4.25;1.95;;;;;;;18.76;47.09;96086.56;2075333;28;20287;-67
2022/09/30 11:56:15;;;;;;;4.30;2.47;;;;;;;20.10;44.19;96103.97;2068223;28;20725;-67
2022/09/30 11:57:31;;;;;;;3.92;1.80;;;;;;;20.28;42.77;96107.59;2080110;28;20645;-67
2022/09/30 11:58:38;;;;;;;7.25;1.85;;;;;;;20.81;42.31;96102.72;2076867;28;20232;-67
2022/09/30 11:59:49;;;;;;;5.00;2.10;;;;;;;21.44;39.96;96095.84;2074003;28;20259;-67
2022/09/30 12:06:02;;;;;;;4.43;2.40;;;;;;;17.97;46.79;96097.66;2074063;28;20652;-66
2022/09/30 12:07:21;;;;;;;3.97;2.00;;;;;;;18.18;47.60;96094.19;2075897;28;20252;-66
2022/09/30 12:08:34;;;;;;;8.82;2.78;;;;;;;18.92;48.12;96090.56;2075831;28;20284;-67
2022/09/30 12:09:41;;;;;;;10.77;2.28;;;;;;;17.62;49.57;96098.72;2073436;28;20257;-67
2022/09/30 12:10:54;;;;;;;6.03;2.55;;;;;;;18.42;49.12;96094.75;2066819;28;20632;-66
2022/09/30 12:12:01;;;;;;;4.35;2.53;;;;;;;17.55;49.85;96092.28;2083149;28;20819;-66
2022/09/30 12:24:41;;;;;;;4.07;2.20;;;;;;;18.68;46.29;96107.53;2077880;28;20185;-67
2022/09/30 12:25:58;;;;;;;4.65;2.20;;;;;;;19.14;45.01;96105.38;2069123;28;20682;-67
2022/09/30 12:27:00;;;;;;;7.78;2.33;;;;;;;19.33;44.03;96094.00;2080680;28;20224;-67
2022/09/30 12:30:16;;;;;;;5.30;2.28;;;;;;;18.18;47.97;96104.75;2076582;28;20743;-68
2022/09/30 12:43:29;;;;;;;9.38;2.88;;;;;;;17.64;50.92;96104.72;2074208;28;20256;-68
2022/09/30 12:44:51;;;;;;;4.13;2.58;;;;;;;17.54;50.35;96101.16;2072178;28;20193;-67
2022/09/30 12:45:53;;;;;;;19.88;3.13;;;;;;;16.81;52.36;96106.88;2063597;28;20340;-68
2022/09/30 12:47:07;;;;;;;5.85;2.35;;;;;;;16.02;53.29;96107.63;2075123;28;20256;-68
2022/09/30 12:48:14;;;;;;;6.65;2.40;;;;;;;15.19;55.38;96104.81;2073923;28;20282;-67
2022/09/30 12:49:23;;;;;;;4.75;2.60;;;;;;;15.41;55.75;96110.34;2075837;28;20281;-68
2022/09/30 12:50:43;;;;;;;4.72;2.38;;;;;;;16.35;53.99;96107.81;2075662;28;20757;-68
2022/09/30 12:51:49;;;;;;;4.93;2.47;;;;;;;17.17;53.26;96107.63;2075604;28;20301;-68
2022/09/30 12:52:51;;;;;;;14.00;3.30;;;;;;;17.63;52.75;96103.06;2076445;28;20231;-67
2022/09/30 12:54:12;;;;;;;8.65;3.05;;;;;;;17.88;51.00;96108.97;2077386;28;20694;-67
2022/09/30 12:55:38;;;;;;;9.15;2.60;;;;;;;17.88;50.66;96096.59;2076750;28;20271;-67
2022/09/30 12:56:43;;;;;;;5.32;2.25;;;;;;;17.91;50.48;96104.25;2073832;28;20304;-68
2022/09/30 12:57:50;;;;;;;6.25;2.15;;;;;;;18.20;51.71;96106.28;2076133;28;20611;-68
2022/09/30 12:58:53;;;;;;;6.03;2.70;;;;;;;18.13;49.63;96104.31;2073797;28;20332;-68
2022/09/30 13:00:00;;;;;;;8.45;3.00;;;;;;;17.59;50.65;96101.63;2073657;28;20231;-67
2022/09/30 13:01:06;;;;;;;5.50;2.05;;;;;;;17.59;50.68;96104.28;2067168;28;20726;-68
2022/09/30 13:02:30;;;;;;;8.13;2.30;;;;;;;17.56;50.97;96107.16;2075614;28;20197;-68
2022/09/30 13:03:56;;;;;;;4.65;2.25;;;;;;;17.46;51.53;96107.91;2074595;28;20200;-68
2022/09/30 13:05:25;;;;;;;5.22;2.30;;;;;;;16.44;52.71;96109.75;2074275;28;20293;-67
2022/09/30 13:06:46;;;;;;;5.15;2.38;;;;;;;16.85;52.38;96107.47;2073239;28;20216;-68
2022/09/30 13:08:03;;;;;;;6.10;2.55;;;;;;;16.66;52.37;96108.94;2082191;28;20234;-67
2022/09/30 13:09:18;;;;;;;6.38;2.20;;;;;;;15.84;54.25;96112.47;2079737;28;20231;-70
2022/09/30 13:10:33;;;;;;;4.68;2.17;;;;;;;15.95;54.35;96101.16;2077581;28;20311;-67
2022/09/30 13:11:44;;;;;;;9.68;2.20;;;;;;;15.90;54.67;96111.19;2071963;28;20327;-68
2022/09/30 13:12:46;;;;;;;10.30;2.70;;;;;;;16.33;54.01;96111.41;2080365;28;20205;-68
2022/09/30 13:14:42;;;;;;;11.02;3.83;;;;;;;16.80;52.55;96103.41;2075417;28;20208;-68
2022/09/30 13:15:47;;;;;;;5.82;2.75;;;;;;;16.64;52.04;96090.56;2072821;28;20304;-68
2022/09/30 13:17:06;;;;;;;7.75;3.17;;;;;;;16.09;54.07;96108.84;2074960;28;20284;-68
2022/09/30 13:18:20;;;;;;;5.30;2.72;;;;;;;16.19;54.21;96113.41;2079062;28;20208;-68
2022/09/30 13:19:32;;;;;;;6.78;2.95;;;;;;;16.51;53.38;96108.31;2078696;28;20239;-68
2022/09/30 13:20:55;;;;;;;9.35;2.65;;;;;;;16.83;54.73;96109.41;2073439;28;20244;-68
2022/09/30 13:22:28;;;;;;;8.50;2.15;;;;;;;17.08;53.87;96109.19;2071611;28;20303;-68
2022/09/30 13:23:59;;;;;;;7.03;2.67;;;;;;;17.32;53.24;96105.56;2069073;28;20632;-68
2022/09/30 13:25:03;;;;;;;19.10;2.88;;;;;;;17.13;52.04;96111.47;2074952;28;20332;-68
2022/09/30 13:26:26;;;;;;;10.07;2.08;;;;;;;16.45;54.15;96117.53;2067629;28;20253;-68
2022/09/30 13:27:33;;;;;;;7.18;2.50;;;;;;;16.59;54.42;96119.09;2083578;28;20240;-68
2022/09/30 13:28:38;;;;;;;13.65;3.10;;;;;;;16.16;54.98;96117.97;2075913;28;20243;-68
2022/09/30 13:35:00;;;;;;;10.27;3.20;;;;;;;16.17;54.79;96121.44;2073944;28;20205;-68
2022/09/30 13:36:06;;;;;;;10.35;2.70;;;;;;;14.95;57.04;96123.19;2070607;28;20232;-68
2022/09/30 13:37:34;;;;;;;8.10;2.97;;;;;;;15.65;56.54;96126.13;2081025;28;20205;-67
2022/09/30 13:38:39;;;;;;;8.27;2.35;;;;;;;15.92;54.99;96125.06;2073689;28;20257;-68
2022/09/30 13:39:53;;;;;;;7.13;2.92;;;;;;;16.15;54.37;96126.81;2075729;28;20239;-68
2022/09/30 13:41:00;;;;;;;5.68;2.20;;;;;;;15.77;55.31;96122.59;2065490;28;20283;-68
2022/09/30 13:42:26;;;;;;;4.15;2.17;;;;;;;15.86;55.23;96107.09;2080814;28;20201;-68
2022/09/30 13:43:42;;;;;;;7.72;3.58;;;;;;;15.28;56.28;96123.53;2077884;28;20280;-68
2022/09/30 13:44:56;;;;;;;5.60;3.05;;;;;;;14.67;57.12;96125.13;2080546;28;20636;-68
2022/09/30 13:46:23;;;;;;;7.25;2.55;;;;;;;14.75;58.09;96124.59;2071689;28;20284;-68
2022/09/30 13:47:38;;;;;;;6.68;3.50;;;;;;;14.81;57.37;96126.78;2084067;28;20654;-68
2022/09/30 13:48:47;;;;;;;6.50;3.10;;;;;;;14.78;58.04;96128.78;2078013;28;20250;-67
2022/09/30 13:49:59;;;;;;;6.03;2.88;;;;;;;15.10;56.89;96123.91;2080918;28;20786;-68
2022/09/30 13:51:07;;;;;;;11.43;3.08;;;;;;;14.95;57.46;96123.19;2080040;28;20249;-68
2022/09/30 13:52:21;;;;;;;5.68;2.50;;;;;;;15.14;56.88;96127.97;2080870;28;20280;-68
2022/09/30 13:53:34;;;;;;;9.60;2.60;;;;;;;15.11;58.20;96120.31;2075898;28;20250;-68
2022/09/30 13:54:44;;;;;;;7.80;2.70;;;;;;;15.54;57.15;96136.59;2075373;28;20288;-68
2022/09/30 13:55:49;;;;;;;8.02;2.45;;;;;;;15.88;55.89;96131.50;2068155;28;20237;-68
2022/09/30 13:56:50;;;;;;;5.45;2.75;;;;;;;15.84;55.68;96133.53;2077728;28;20228;-68
2022/09/30 13:58:11;;;;;;;6.68;2.45;;;;;;;15.54;55.68;96133.97;2076471;28;20634;-68
2022/09/30 13:59:34;;;;;;;6.85;2.55;;;;;;;15.91;55.38;96136.53;2073494;28;20225;-67
2022/09/30 14:01:15;;;;;;;13.15;2.80;;;;;;;15.76;54.66;96139.31;2074990;28;20310;-67
2022/09/30 14:02:46;;;;;;;7.80;2.65;;;;;;;15.66;54.98;96141.78;2074630;28;20223;-67
2022/09/30 14:10:55;;;;;;;5.25;2.70;;;;;;;14.64;56.76;96142.84;2076859;28;20316;-67
2022/09/30 14:12:18;;;;;;;3.63;2.15;;;;;;;14.06;58.23;96135.38;2076418;28;20202;-67
2022/09/30 14:13:26;;;;;;;8.30;3.17;;;;;;;14.24;57.91;96135.91;2077413;28;20316;-68
2022/09/30 14:15:03;;;;;;;5.18;2.28;;;;;;;14.15;58.58;96134.75;2078120;28;20291;-67
2022/09/30 14:22:52;;;;;;;5.93;2.60;;;;;;;15.55;55.27;96133.84;2075422;28;20213;-68
2022/09/30 14:24:14;;;;;;;5.70;2.90;;;;;;;15.60;54.85;96134.34;2080456;28;20193;-67
2022/09/30 14:25:21;;;;;;;5.35;2.60;;;;;;;15.44;56.04;96132.00;2080137;28;20287;-68
2022/09/30 14:26:52;;;;;;;7.90;3.88;;;;;;;15.55;54.31;96138.28;2072675;28;20213;-67
2022/09/30 14:28:17;;;;;;;7.28;3.00;;;;;;;15.47;55.56;96139.66;2069576;28;20289;-68
2022/09/30 14:29:43;;;;;;;10.38;2.80;;;;;;;16.73;52.76;96136.47;2075820;28;20198;-68
2022/09/30 14:31:06;;;;;;;8.27;2.40;;;;;;;17.68;51.28;96135.19;2067260;28;20249;-67
2022/09/30 14:32:17;;;;;;;6.25;2.28;;;;;;;17.67;49.96;96133.50;2076323;28;20676;-68
2022/09/30 14:33:24;;;;;;;9.32;2.70;;;;;;;17.23;51.06;96137.94;2078116;28;20276;-68
2022/09/30 14:34:28;;;;;;;10.63;3.60;;;;;;;17.29;50.70;96134.81;2076496;28;20216;-68
2022/09/30 14:35:32;;;;;;;8.70;2.53;;;;;;;17.72;49.60;96138.44;2076060;28;20714;-68
2022/09/30 14:36:34;;;;;;;4.63;2.58;;;;;;;17.88;48.97;96136.19;2071420;28;20320;-68
2022/09/30 14:37:44;;;;;;;5.97;2.30;;;;;;;17.66;49.68;96137.13;2082841;28;20561;-68
2022/09/30 14:38:50;;;;;;;5.95;2.40;;;;;;;17.81;49.78;96131.56;2074361;28;20292;-67
2022/09/30 14:39:51;;;;;;;11.70;2.80;;;;;;;17.98;49.41;96138.97;2076803;28;20288;-68
2022/09/30 14:40:57;;;;;;;9.82;2.70;;;;;;;17.80;49.26;96120.13;2072488;28;20296;-68
2022/09/30 14:42:02;;;;;;;5.25;2.78;;;;;;;17.59;50.23;96134.13;2076319;28;20675;-68
2022/09/30 14:43:06;;;;;;;3.85;2.25;;;;;;;17.68;50.22;96129.09;2073137;28;20189;-68
2022/09/30 14:44:16;;;;;;;7.03;2.92;;;;;;;17.19;51.43;96131.22;2073807;28;20341;-68
2022/09/30 14:45:25;;;;;;;7.63;2.70;;;;;;;17.02;51.12;96114.09;2075894;28;20231;-67
2022/09/30 14:46:33;;;;;;;8.15;2.60;;;;;;;17.20;51.14;96132.91;2067109;28;20228;-68
2022/09/30 14:47:50;;;;;;;6.15;3.05;;;;;;;16.88;51.08;96131.00;2079156;28;20240;-68
2022/09/30 14:48:54;;;;;;;7.75;2.35;;;;;;;16.94;51.59;96134.00;2077200;28;20291;-68
2022/09/30 14:49:56;;;;;;;6.07;2.35;;;;;;;16.99;51.45;96136.28;2076492;28;20197;-68
2022/09/30 14:51:09;;;;;;;10.38;2.65;;;;;;;16.84;51.46;96137.47;2068463;28;20301;-68
2022/09/30 14:52:40;;;;;;;4.35;2.45;;;;;;;16.59;51.74;96134.09;2075009;28;20233;-68
2022/09/30 14:53:59;;;;;;;4.32;2.55;;;;;;;16.31;52.54;96129.13;2074593;28;20281;-68
2022/09/30 14:55:01;;;;;;;7.85;2.30;;;;;;;16.10;53.22;96093.88;2076687;28;20204;-68
2022/09/30 14:56:17;;;;;;;4.03;2.33;;;;;;;16.14;53.55;96130.41;2068216;28;20270;-68
2022/09/30 14:57:18;;;;;;;4.05;2.55;;;;;;;15.98;54.01;96119.34;2076461;28;20299;-68
2022/09/30 15:06:52;;;;;;;9.90;2.33;;;;;;;16.68;54.19;96128.09;2084715;28;21063;-66
2022/09/30 15:07:57;;;;;;;6.70;2.70;;;;;;;17.21;51.63;96111.66;2076014;28;20197;-66
2022/09/30 15:09:05;;;;;;;6.47;2.22;;;;;;;17.22;51.20;96129.19;2079710;28;20283;-66
2022/09/30 15:16:56;;;;;;;5.57;2.20;;;;;;;16.32;53.60;96122.88;2079746;28;20209;-68
2022/09/30 15:18:22;;;;;;;5.32;2.78;;;;;;;17.52;50.80;96124.19;2079762;28;20668;-69
2022/09/30 15:19:27;;;;;;;5.80;2.72;;;;;;;17.61;50.86;96121.66;2077758;28;20200;-68
2022/09/30 15:20:33;;;;;;;5.20;2.83;;;;;;;17.20;51.08;96117.91;2080039;28;20292;-68
2022/09/30 15:21:35;;;;;;;8.98;2.38;;;;;;;17.17;51.53;96102.34;2078914;28;20763;-68
2022/09/30 15:22:36;;;;;;;5.65;2.88;;;;;;;17.81;49.80;96121.00;2089543;28;20283;-68
2022/09/30 15:23:43;;;;;;;8.20;2.80;;;;;;;17.42;50.16;96114.41;2080759;28;20201;-68
2022/09/30 15:24:46;;;;;;;6.13;2.95;;;;;;;17.11;50.15;96124.75;2082214;28;20232;-68
2022/09/30 15:25:48;;;;;;;4.45;2.63;;;;;;;16.86;51.37;96114.44;2075747;28;20283;-68
2022/09/30 15:26:52;;;;;;;5.97;2.80;;;;;;;16.18;52.16;96119.66;2089209;28;20243;-68
2022/09/30 15:27:53;;;;;;;7.68;3.00;;;;;;;15.88;53.18;96126.25;2085826;28;20315;-69
2022/09/30 15:34:03;;;;;;;3.47;1.95;;;;;;;17.62;49.44;96125.97;2082647;28;20173;-68
2022/09/30 15:35:15;;;;;;;5.22;2.35;;;;;;;18.32;48.21;96120.31;2080359;28;20708;-68
2022/09/30 15:36:17;;;;;;;5.65;2.50;;;;;;;18.66;46.98;96125.34;2079996;28;20738;-69
2022/09/30 15:37:22;;;;;;;3.88;2.13;;;;;;;18.40;47.40;96119.66;2093861;28;20231;-69
2022/09/30 15:38:26;;;;;;;4.20;2.30;;;;;;;18.12;48.63;96119.31;2082609;28;20197;-69
2022/09/30 15:40:44;;;;;;;6.15;2.50;;;;;;;17.91;48.17;96103.41;2079651;28;20306;-70
2022/09/30 15:41:11;;;;;;;3.65;2.20;;;;;;;18.50;46.95;96127.63;2078494;28;20339;-69
2022/09/30 15:42:26;;;;;;;6.68;1.95;;;;;;;18.64;46.33;96123.78;2076711;28;20287;-69
2022/09/30 15:43:33;;;;;;;3.78;1.80;;;;;;;18.67;46.50;96119.09;2077345;28;20246;-68
2022/09/30 15:44:38;;;;;;;6.35;2.10;;;;;;;18.68;45.52;96126.06;2074253;28;20294;-69
2022/09/30 15:45:42;;;;;;;6.60;1.90;;;;;;;18.81;45.83;96125.00;2060930;28;20244;-69
2022/09/30 15:47:04;;;;;;;6.45;2.22;;;;;;;18.40;47.05;96130.22;2093049;28;20295;-68
2022/09/30 15:48:06;;;;;;;5.18;1.80;;;;;;;18.70;47.01;96129.41;2086823;28;20232;-69
2022/09/30 15:49:44;;;;;;;5.32;1.75;;;;;;;18.81;47.75;96136.41;2078644;28;21188;-69
2022/09/30 15:50:54;;;;;;;3.40;1.65;;;;;;;18.77;47.19;96133.19;2081433;28;20189;-69
2022/09/30 15:59:06;;;;;;;7.85;2.25;;;;;;;18.06;51.61;96146.25;2076212;28;20182;-69
2022/09/30 16:00:35;;;;;;;9.38;2.97;;;;;;;18.14;52.34;96142.97;2077217;28;20196;-68
2022/09/30 16:01:46;;;;;;;6.68;2.47;;;;;;;17.28;52.72;96135.75;2066086;28;20236;-69
2022/09/30 16:02:48;;;;;;;6.38;2.90;;;;;;;16.71;54.68;96150.72;2075813;28;20202;-68
2022/09/30 16:03:58;;;;;;;9.00;3.90;;;;;;;16.20;55.50;96149.31;2077347;28;20571;-69
2022/09/30 16:10:02;;;;;;;9.27;2.45;;;;;;;16.13;58.70;96152.41;2080682;28;20228;-69
2022/09/30 16:11:04;;;;;;;10.20;2.25;;;;;;;16.03;59.08;96151.44;2096723;28;20654;-68
2022/09/30 16:12:11;;;;;;;13.27;3.00;;;;;;;16.00;58.95;96149.03;2095677;28;20799;-69
2022/09/30 16:13:14;;;;;;;6.00;2.88;;;;;;;15.87;59.01;96137.72;2079490;28;20208;-69
2022/09/30 16:14:23;;;;;;;6.75;2.50;;;;;;;15.87;59.15;96140.34;2081771;28;20248;-68
2022/09/30 16:27:29;;;;;;;6.80;2.67;;;;;;;16.45;57.42;96143.03;2086879;28;20661;-64
2022/09/30 16:28:34;;;;;;;8.10;2.38;;;;;;;16.35;58.26;96145.53;2079889;28;20204;-65
2022/09/30 16:29:36;;;;;;;5.75;2.40;;;;;;;16.19;58.02;96156.41;2075916;28;20225;-66
2022/09/30 16:30:44;;;;;;;12.38;2.50;;;;;;;16.19;58.19;96148.50;2072567;28;20201;-66
2022/09/30 16:31:48;;;;;;;7.88;2.63;;;;;;;15.83;59.64;96145.88;2064751;28;20685;-66
2022/09/30 16:32:54;;;;;;;11.27;2.80;;;;;;;15.59;60.20;96122.16;2064027;28;20233;-66
2022/09/30 17:16:37;;;;;;;13.43;5.13;;;;;;;11.69;78.20;96168.13;2060303;27;1239753;-65
